Airfield :
LOGIN :

Register | Disclaimer

   EN    FR    IT 

 










Legend :    VFR   Marginal VFR   IFR   Intensive IFR   Very Intensive IFR
Visi :
Ceiling :
>= 8 km
>= 3000ft
5 to 8 km
1000 to 3000 ft
1500m to 5 km
500 to 1000 ft
800 to 1500m
200 to 500 ft
< 800m
< 200 ft
Symbols :   Thunderstorms  Fog  Heavy snow  Heavy precipitations  Wind > 20 kt
SIGMETs :     Misc.  Thunderstorms  Icing  Turbulence  Mountain Waves  Volcanic Ashes







- Airport Elevation : 1910 ft
- IATA code : RDZ
- Download approach charts


LFCR - Rodez

CURRENT METAR :
  • 190430Z AUTO 12021G32KT CAVOK 14/02 Q1021 NOSIG

EXPIRED METARs :
  • 190400Z AUTO 12022KT 090V150 CAVOK 14/02 Q1020 BECMG 13015G28KT
  • 190330Z AUTO 13019G30KT CAVOK 14/02 Q1020 NOSIG
  • 190300Z AUTO 12018KT CAVOK 14/02 Q1020 BECMG 13015G28KT
  • 190230Z AUTO 12021KT CAVOK 15/02 Q1020 BECMG 13015G28KT
  • 190200Z AUTO 12018KT CAVOK 15/01 Q1020 BECMG 13015G28KT

TAF TAF LFCR
Valid from the 19 at 00:00 until the 20 at 00:00 UTC


182300Z 1900/1924 13015G28KT CAVOK
BECMG 1914/1916 13012KT
No reported NOTAMs for that airfield.
2 SIGMETs reported for the Bordeaux FIR (LFBB) :
 
Severe turbulence
LFBB SIGMET 6 VALID 190100/190500 LFPW
LFBB BORDEAUX FIR/UIR SEV TURB FCST WI N4400 E00245 - N4315 E00230 - N4300 E00215 - N4330 E00130 - N4400 E00245 SFC/FL050 STNR NC=
Severe turbulence
LFBB SIGMET 1 VALID 190500/190900 LFPW
LFBB BORDEAUX FIR/UIR SEV TURB FCST WI N4415 E00245 - N4315 E00230 - N4330 E00145 - N4415 E00245 SFC/FL060 STNR NC=



MET'MAP, your aeronautical weather chart ! - Copyright ORBIFLY December 2007 - Disclaimer

ORBIFLY MET'MAP TEAM :

Programming & Development : Alexandra Zaïnal
Concept & Development : Baudouin d'Aumeries
Co-Development & Prog : Marc-Olivier Méhu
Technical & hardware support : Manuel Goepfert

Contact : metmap@orbifly.com




SOURCES & CREDITS :

   NOAA